Date,TemperatureHighF,TemperatureAvgF,TemperatureLowF,DewpointHighF,DewpointAvgF,DewpointLowF,HumidityHigh,HumidityAvg,HumidityLow,PressureMaxIn,PressureMinIn,WindSpeedMaxMPH,WindSpeedAvgMPH,GustSpeedMaxMPH,PrecipitationSumIn
2013-3-1,31,28,26,25,22,19,82,75,69,30.36,30.23,7,2,15,0.00
2013-3-2,38,29,23,24,20,17,77,70,54,30.39,30.17,6,0,9,0.00
2013-3-3,45,35,28,32,27,22,79,72,59,30.16,29.68,8,1,15,0.00
2013-3-4,52,42,36,39,34,30,84,72,60,30.00,29.63,8,1,14,0.00
2013-3-5,39,33,27,33,22,18,87,63,52,30.39,30.00,20,4,27,0.00
2013-3-6,43,30,19,27,22,15,88,71,52,30.46,30.27,5,0,11,0.00
2013-3-7,54,39,25,37,28,21,84,67,47,30.28,30.09,9,2,18,0.00
2013-3-8,61,50,37,49,40,30,78,68,55,30.16,29.89,14,4,21,0.00
2013-3-9,56,53,48,55,48,42,96,85,62,29.88,29.53,16,4,26,1.51
2013-3-10,53,36,26,51,33,22,100,91,83,29.96,29.53,24,4,24,0.02
2013-3-11,42,30,23,25,22,19,85,72,43,30.04,29.92,14,4,18,0.00
2013-3-12,48,38,31,31,26,23,82,63,42,30.36,30.03,18,4,25,0.00
2013-3-13,48,37,23,26,24,20,88,60,40,30.49,30.29,4,0,13,0.00
2013-3-14,74,53,36,46,36,26,69,54,31,30.29,30.02,12,2,16,0.00
2013-3-15,84,62,40,48,41,34,82,52,21,30.05,29.59,13,3,19,0.00
2013-3-16,57,42,35,45,35,28,92,76,63,30.05,29.68,13,4,21,0.00
2013-3-17,40,35,32,33,30,27,91,84,72,30.05,29.76,12,2,14,0.00
2013-3-18,55,43,35,35,29,19,94,64,32,30.06,29.76,14,3,28,0.00
2013-3-19,44,34,27,38,26,18,89,73,52,30.27,30.05,6,0,7,0.21
2013-3-20,43,34,24,34,19,13,89,57,35,30.43,30.12,10,2,19,0.00
2013-3-21,34,30,29,27,22,14,93,71,51,30.11,29.89,9,2,14,0.00
2013-3-22,34,31,29,31,29,27,94,92,89,30.02,29.95,5,1,8,0.00
2013-3-23,37,33,30,32,30,28,94,88,73,30.05,29.89,11,3,17,0.14
2013-3-24,33,29,24,28,24,18,94,83,65,30.14,29.91,15,4,27,0.20
2013-3-25,34,29,23,26,22,17,87,78,68,30.39,30.13,12,4,20,0.00
2013-3-26,39,29,18,26,21,15,87,72,55,30.44,30.30,5,0,11,0.00
2013-3-27,52,40,28,35,29,22,78,66,50,30.31,30.16,7,1,16,0.00
2013-3-28,64,49,30,43,36,26,91,64,42,30.21,30.09,9,0,13,0.00
2013-3-29,70,57,44,51,45,40,84,65,41,30.17,30.02,8,1,13,0.01
2013-3-30,70,60,52,57,51,43,95,76,53,30.02,29.80,16,1,18,0.23
2013-3-31,64,55,47,47,41,32,90,62,33,29.96,29.90,12,2,19,0.00